Station info - map view · info · telemetry · weather · raw · status · beacons · messages · bulletins · browse · moving · my account
Callsign, ship name or locator: Clear       
It is possible to search using wildcards (*?) after a prefix. Example: OH*
APRS station N3FLL-9 - show graphs
Map loading...
Mic-E message: Custom 1
Location: 39°57.51' N 75°41.73' W - locator FM29DX60MA - show map - static map
4.8 miles West bearing 268° from West Chester, Chester County, Pennsylvania, United States [?]
6.5 miles West bearing 264° from West Goshen, Chester County, Pennsylvania, United States
28.1 miles West bearing 271° from Philadelphia, Philadelphia County, Pennsylvania, United States
67.1 miles Northeast bearing 46° from Baltimore, City of Baltimore, Maryland, United States
Last position: 2018-04-21 13:54:55 EDT (6h54m ago)
2018-04-21 13:54:55 EDT local time at West Chester, United States [?]
Altitude: 443 ft
Course: 81°
Speed: 7 MPH
Device: Kenwood: TM-D710 (rig)
Last path: N3FLL-9>DJ5W5Q via WIDE1-1,WIDE2-1,qAR,WA3NOA-5 (good)
Positions stored: 8532
Packet rate: 215 seconds between packets on average during 2151 seconds.
Other SSIDs: N3FLL
Stations near current position of N3FLL-9 - show more
callsign distance last heard - EDT      callsign distance last heard - EDT
W3MWR-22.1 miles 213°2018-04-21 20:48:39 K3ZA2.2 miles 255°2018-04-21 20:40:23
EW95762.5 miles 309°2018-04-21 20:45:44 EW99382.5 miles 40°2018-04-21 20:45:44
KB3ZUV B3.5 miles 325°2018-04-11 07:35:27 KB3ZUV-B3.5 miles 325°2018-04-11 07:35:37
KB3ZUV-R3.5 miles 325°2018-03-30 23:01:22 W3EOC AD3.9 miles 152°2018-04-21 20:46:15
W3EOC C3.9 miles 152°2018-04-21 20:46:15 W3EOC B3.9 miles 152°2018-04-21 20:46:15
W3EOC A3.9 miles 152°2018-04-21 20:46:14 W3EOC-B3.9 miles 152°2018-04-21 20:46:00
W3EOC-A3.9 miles 152°2018-04-21 20:46:01 W3EOC-C3.9 miles 152°2018-04-21 20:45:59
KB3ZUV4.3 miles 351°2018-04-21 20:35:52 B-24.6 miles 105°2018-04-21 07:08:56
WA2MZB-24.6 miles 105°2018-04-21 20:47:51 WR3Y B4.6 miles 86°2018-04-21 20:30:36
WR3Y-B4.6 miles 86°2018-04-21 20:30:46 WR3Y-R4.6 miles 86°2018-04-15 15:24:55
Stations which heard N3FLL-9 directly on radio –
callsign pkts first heard - EDT last heard longest (tx => rx) longest at - EDT
K3ZMC-1 1 2018-04-14 15:55:17 2018-04-14 15:55:17 FN10UE > FN20DH 31.5 miles 70° 2018-04-14 15:55:17
W3UD-3 2 2018-04-21 10:03:43 2018-04-21 10:15:13 FM29GQ > FM29CQ 14.9 miles 273° 2018-04-21 10:03:43
N3XJT-1 2 2018-04-21 10:38:49 2018-04-21 13:19:04 FM29ET > FM29AN 25.7 miles 230° 2018-04-21 13:19:04
W2VER-15 9 2018-04-07 11:03:44 2018-04-09 09:11:53 FN21VM > FN21RE 28.3 miles 213° 2018-04-07 11:03:44
W3EOC-5 34 2018-04-07 07:21:11 2018-04-21 13:36:31 FM29ER > FM29EX 16.0 miles 7° 2018-04-21 06:02:45
WA2MJM-15 9 2018-04-07 11:37:56 2018-04-09 08:18:42 FN21WQ > FN21XV 15.6 miles 16° 2018-04-09 08:18:42
WA2MHV-14 10 2018-04-07 12:01:03 2018-04-09 08:08:28 FN21XR > FN22WB 23.2 miles 355° 2018-04-09 08:08:28
AB2ZO-2 5 2018-04-07 11:53:35 2018-04-09 08:01:11 FN31AV > FN31AR 11.9 miles 165° 2018-04-09 07:47:28
WB2LMV 1 2018-04-07 10:39:58 2018-04-07 10:39:58 FN21QI > FN21TR 29.0 miles 29° 2018-04-07 10:39:58
WB2ZII-15 3 2018-04-07 10:55:27 2018-04-09 08:57:28 FN21TK > FN31CG 30.8 miles 114° 2018-04-09 08:57:28
WF2O 6 2018-04-07 08:42:41 2018-04-09 11:10:50 FN20IP > FN20GN 10.2 miles 232° 2018-04-07 09:00:49
KB3RNL-1 2 2018-04-14 14:44:30 2018-04-14 14:47:23 FN20BB > FN20BC 2.0 miles 317° 2018-04-14 14:44:30
WA3NOA-5 6 2018-04-12 11:54:33 2018-04-21 13:54:55 FM29DX > FN20EA 5.3 miles 49° 2018-04-21 13:54:55
K3JSE-5 14 2018-04-07 07:37:03 2018-04-21 05:23:27 FM29DX > FN20CA 7.8 miles 315° 2018-04-21 05:23:27
KB3EJM-11 6 2018-04-07 08:45:32 2018-04-09 10:55:36 FN20GN > FN21HB 33.7 miles 11° 2018-04-07 08:45:32
N2KI-3 7 2018-04-07 10:39:59 2018-04-09 09:18:30 FN21WQ > FN21RK 28.1 miles 235° 2018-04-07 11:32:36
N3TJJ-11 10 2018-04-14 15:17:13 2018-04-15 14:00:55 FN10UE > FM19UV 19.7 miles 179° 2018-04-14 15:54:15
K2PUT-15 1 2018-04-09 08:01:12 2018-04-09 08:01:12 FN31AR > FN31DL 23.0 miles 147° 2018-04-09 08:01:12
N2KI-10 1 2018-04-09 08:48:45 2018-04-09 08:48:45 FN21VM > FN21VK 6.3 miles 160° 2018-04-09 08:48:45
NR3I 9 2018-04-21 10:11:49 2018-04-21 10:32:57 FM29EQ > FM29ER 4.0 miles 343° 2018-04-21 10:14:43
KD2DVW-1 5 2018-04-21 06:42:41 2018-04-21 08:03:24 FM29JK > FM29JL 4.9 miles 50° 2018-04-21 08:03:24
CLAYTN 8 2018-04-21 06:38:11 2018-04-21 10:07:12 FM29FQ > FM29KQ 21.4 miles 91° 2018-04-21 10:07:12
W3AD-1 13 2018-04-14 14:56:47 2018-04-15 14:05:25 FN20AC > FN10TF 22.0 miles 294° 2018-04-14 14:56:47
W3FIK-10 10 2018-04-07 08:59:40 2018-04-09 10:44:33 FN20IP > FN20IU 13.8 miles 6° 2018-04-07 08:59:40
W2LV-3 1 2018-04-09 09:36:30 2018-04-09 09:36:30 FN21NG > FN21OE 7.4 miles 143° 2018-04-09 09:36:30
K2ATY-10 3 2018-04-09 08:22:32 2018-04-09 08:48:56 FN21VM > FN21XN 7.1 miles 65° 2018-04-09 08:48:56
KC2FQN-15 1 2018-04-09 09:13:23 2018-04-09 09:13:23 FN21QI > FN21MO 22.1 miles 320° 2018-04-09 09:13:23
KC2OUR-4 8 2018-04-07 10:41:24 2018-04-09 09:03:54 FN21QI > FN21TJ 13.4 miles 80° 2018-04-07 10:41:24
WC3T-10 4 2018-04-07 09:04:13 2018-04-09 10:50:43 FN20IP > FN20IS 7.9 miles 358° 2018-04-09 10:50:43
N2RO-3 1 2018-04-21 06:41:07 2018-04-21 06:41:07 FM29IM > FM29KO 10.5 miles 59° 2018-04-21 06:41:07
N3FYI-2 2 2018-04-14 15:19:55 2018-04-14 15:55:35 FN10UE > FN20BB 21.5 miles 113° 2018-04-14 15:55:35
W3OKW-10 1 2018-04-09 10:43:23 2018-04-09 10:43:23 FN20IR > FN20JV 11.8 miles 13° 2018-04-09 10:43:23

Only position packets which were originated by the station are shown here. The range statistics show some extra long hops, because some digipeaters do not correctly add themselves to the digipeater path. Please check the raw packets.
About this site
This page shows real-time information collected from the Automatic Position Reporting System Internet network (APRS-IS). APRS is used by amateur (ham) radio operators to transmit real-time position information, weather data, telemetry and messages over the radio. A vehicle equipped with a GPS receiver, a VHF transmitter or HF transceiver and a small computer device called a tracker transmits it's location, speed and course in a small data packet, which is then received by a nearby iGate receiving site which forwards the packet on the Internet. Systems connected to the Internet can send information on the APRS-IS without a radio transmitter, or collect and display information transmitted anywhere in the world.
FAQ · Blog · Discussion group · Linking to aprs.fi · AIS sites · Service status · Database statistics · Advertising on aprs.fi · Technical details · API · Change log · Planned changes · Credits and thanks · Terms Of Service · iPhone/iPad APRS